sensor_id;sensor_type;location;lat;lon;timestamp;P1;P2;P0
38451;PMS5003;24231;52.514;13.438;2023-04-01T00:00:18;3;3;
38451;PMS5003;24231;52.514;13.438;2023-04-01T00:02:47;4;3;
38451;PMS5003;24231;52.514;13.438;2023-04-01T00:05:14;3;3;
38451;PMS5003;24231;52.514;13.438;2023-04-01T00:07:41;4;4;
38451;PMS5003;24231;52.514;13.438;2023-04-01T00:10:10;7;5;
38451;PMS5003;24231;52.514;13.438;2023-04-01T00:12:38;4;4;
38451;PMS5003;24231;52.514;13.438;2023-04-01T00:15:10;3;3;
38451;PMS5003;24231;52.514;13.438;2023-04-01T00:17:38;2;2;
38451;PMS5003;24231;52.514;13.438;2023-04-01T00:20:06;3;3;
38451;PMS5003;24231;52.514;13.438;2023-04-01T00:22:33;5;3;
38451;PMS5003;24231;52.514;13.438;2023-04-01T00:25:01;5;4;
38451;PMS5003;24231;52.514;13.438;2023-04-01T00:27:28;5;4;
38451;PMS5003;24231;52.514;13.438;2023-04-01T00:29:55;4;3;
38451;PMS5003;24231;52.514;13.438;2023-04-01T00:32:22;1;1;
38451;PMS5003;24231;52.514;13.438;2023-04-01T00:34:50;3;2;
38451;PMS5003;24231;52.514;13.438;2023-04-01T00:37:18;3;3;
38451;PMS5003;24231;52.514;13.438;2023-04-01T00:39:45;4;4;
38451;PMS5003;24231;52.514;13.438;2023-04-01T00:42:12;2;2;
38451;PMS5003;24231;52.514;13.438;2023-04-01T00:44:40;3;3;
38451;PMS5003;24231;52.514;13.438;2023-04-01T00:47:07;2;2;
38451;PMS5003;24231;52.514;13.438;2023-04-01T00:49:35;4;3;
38451;PMS5003;24231;52.514;13.438;2023-04-01T00:52:06;6;3;
38451;PMS5003;24231;52.514;13.438;2023-04-01T00:54:36;3;3;
38451;PMS5003;24231;52.514;13.438;2023-04-01T00:57:05;4;4;
38451;PMS5003;24231;52.514;13.438;2023-04-01T00:59:37;4;4;
38451;PMS5003;24231;52.514;13.438;2023-04-01T01:02:08;3;2;
38451;PMS5003;24231;52.514;13.438;2023-04-01T01:04:37;1;1;
38451;PMS5003;24231;52.514;13.438;2023-04-01T01:07:08;2;2;
38451;PMS5003;24231;52.514;13.438;2023-04-01T01:09:46;2;2;
38451;PMS5003;24231;52.514;13.438;2023-04-01T01:12:23;2;2;
38451;PMS5003;24231;52.514;13.438;2023-04-01T01:14:59;6;1;
38451;PMS5003;24231;52.514;13.438;2023-04-01T01:17:33;2;2;
38451;PMS5003;24231;52.514;13.438;2023-04-01T01:21:20;2;2;
38451;PMS5003;24231;52.514;13.438;2023-04-01T01:25:09;3;3;
38451;PMS5003;24231;52.514;13.438;2023-04-01T01:27:48;3;2;
38451;PMS5003;24231;52.514;13.438;2023-04-01T01:30:25;3;2;
38451;PMS5003;24231;52.514;13.438;2023-04-01T01:33:11;1;1;
38451;PMS5003;24231;52.514;13.438;2023-04-01T01:35:46;5;4;
38451;PMS5003;24231;52.514;13.438;2023-04-01T01:38:16;2;2;
38451;PMS5003;24231;52.514;13.438;2023-04-01T01:40:46;3;3;
38451;PMS5003;24231;52.514;13.438;2023-04-01T01:43:16;2;1;
38451;PMS5003;24231;52.514;13.438;2023-04-01T01:45:48;4;4;
38451;PMS5003;24231;52.514;13.438;2023-04-01T01:48:19;4;4;
38451;PMS5003;24231;52.514;13.438;2023-04-01T01:50:46;2;2;
38451;PMS5003;24231;52.514;13.438;2023-04-01T01:53:14;3;3;
38451;PMS5003;24231;52.514;13.438;2023-04-01T01:55:43;3;2;
38451;PMS5003;24231;52.514;13.438;2023-04-01T01:58:11;6;3;
38451;PMS5003;24231;52.514;13.438;2023-04-01T02:00:43;5;3;
38451;PMS5003;24231;52.514;13.438;2023-04-01T02:03:14;3;3;
38451;PMS5003;24231;52.514;13.438;2023-04-01T02:05:43;2;2;
38451;PMS5003;24231;52.514;13.438;2023-04-01T02:08:12;5;3;
38451;PMS5003;24231;52.514;13.438;2023-04-01T02:10:45;6;5;
38451;PMS5003;24231;52.514;13.438;2023-04-01T02:13:23;6;4;
38451;PMS5003;24231;52.514;13.438;2023-04-01T02:15:56;2;2;
38451;PMS5003;24231;52.514;13.438;2023-04-01T02:18:28;4;3;
38451;PMS5003;24231;52.514;13.438;2023-04-01T02:20:59;3;3;
38451;PMS5003;24231;52.514;13.438;2023-04-01T02:23:29;2;2;
38451;PMS5003;24231;52.514;13.438;2023-04-01T02:25:58;1;1;
38451;PMS5003;24231;52.514;13.438;2023-04-01T02:28:26;3;1;
38451;PMS5003;24231;52.514;13.438;2023-04-01T02:30:56;3;3;
38451;PMS5003;24231;52.514;13.438;2023-04-01T02:33:26;2;2;
38451;PMS5003;24231;52.514;13.438;2023-04-01T02:35:55;2;1;
38451;PMS5003;24231;52.514;13.438;2023-04-01T02:38:22;5;4;
38451;PMS5003;24231;52.514;13.438;2023-04-01T02:40:50;2;2;
38451;PMS5003;24231;52.514;13.438;2023-04-01T02:43:23;2;1;
38451;PMS5003;24231;52.514;13.438;2023-04-01T02:45:51;2;2;
38451;PMS5003;24231;52.514;13.438;2023-04-01T02:48:18;2;2;
38451;PMS5003;24231;52.514;13.438;2023-04-01T02:50:45;3;2;
38451;PMS5003;24231;52.514;13.438;2023-04-01T02:53:12;1;1;
38451;PMS5003;24231;52.514;13.438;2023-04-01T02:55:40;5;4;
38451;PMS5003;24231;52.514;13.438;2023-04-01T02:58:07;2;2;
38451;PMS5003;24231;52.514;13.438;2023-04-01T03:00:34;2;2;
38451;PMS5003;24231;52.514;13.438;2023-04-01T03:03:01;4;3;
38451;PMS5003;24231;52.514;13.438;2023-04-01T03:05:29;4;2;
38451;PMS5003;24231;52.514;13.438;2023-04-01T03:07:56;4;2;
38451;PMS5003;24231;52.514;13.438;2023-04-01T03:10:23;2;2;
38451;PMS5003;24231;52.514;13.438;2023-04-01T03:12:50;2;2;
38451;PMS5003;24231;52.514;13.438;2023-04-01T03:15:17;4;4;
38451;PMS5003;24231;52.514;13.438;2023-04-01T03:17:45;4;4;
38451;PMS5003;24231;52.514;13.438;2023-04-01T03:20:12;3;3;
38451;PMS5003;24231;52.514;13.438;2023-04-01T03:22:40;3;3;
38451;PMS5003;24231;52.514;13.438;2023-04-01T03:25:08;4;3;
38451;PMS5003;24231;52.514;13.438;2023-04-01T03:27:35;3;3;
38451;PMS5003;24231;52.514;13.438;2023-04-01T03:30:04;3;3;
38451;PMS5003;24231;52.514;13.438;2023-04-01T03:32:33;4;3;
38451;PMS5003;24231;52.514;13.438;2023-04-01T03:35:00;5;4;
38451;PMS5003;24231;52.514;13.438;2023-04-01T03:37:27;3;3;
38451;PMS5003;24231;52.514;13.438;2023-04-01T03:39:54;1;1;
38451;PMS5003;24231;52.514;13.438;2023-04-01T03:42:32;3;2;
38451;PMS5003;24231;52.514;13.438;2023-04-01T03:44:59;2;2;
38451;PMS5003;24231;52.514;13.438;2023-04-01T03:47:31;4;3;
38451;PMS5003;24231;52.514;13.438;2023-04-01T03:49:59;5;2;
38451;PMS5003;24231;52.514;13.438;2023-04-01T03:52:26;2;2;
38451;PMS5003;24231;52.514;13.438;2023-04-01T03:54:53;2;2;
38451;PMS5003;24231;52.514;13.438;2023-04-01T03:57:21;3;3;
38451;PMS5003;24231;52.514;13.438;2023-04-01T03:59:49;2;2;
38451;PMS5003;24231;52.514;13.438;2023-04-01T04:02:22;1;1;
38451;PMS5003;24231;52.514;13.438;2023-04-01T04:04:49;5;4;
38451;PMS5003;24231;52.514;13.438;2023-04-01T04:07:16;3;3;
38451;PMS5003;24231;52.514;13.438;2023-04-01T04:09:43;6;5;
38451;PMS5003;24231;52.514;13.438;2023-04-01T04:12:10;3;3;
38451;PMS5003;24231;52.514;13.438;2023-04-01T04:14:38;4;4;
38451;PMS5003;24231;52.514;13.438;2023-04-01T04:17:05;7;4;
38451;PMS5003;24231;52.514;13.438;2023-04-01T04:19:32;1;1;
38451;PMS5003;24231;52.514;13.438;2023-04-01T04:21:59;4;3;
38451;PMS5003;24231;52.514;13.438;2023-04-01T04:24:27;5;3;
38451;PMS5003;24231;52.514;13.438;2023-04-01T04:26:54;2;2;
38451;PMS5003;24231;52.514;13.438;2023-04-01T04:29:22;2;2;
38451;PMS5003;24231;52.514;13.438;2023-04-01T04:31:49;9;7;
38451;PMS5003;24231;52.514;13.438;2023-04-01T04:34:17;4;3;
38451;PMS5003;24231;52.514;13.438;2023-04-01T04:36:44;4;3;
38451;PMS5003;24231;52.514;13.438;2023-04-01T04:39:11;5;4;
38451;PMS5003;24231;52.514;13.438;2023-04-01T04:41:39;6;4;
38451;PMS5003;24231;52.514;13.438;2023-04-01T04:44:06;4;4;
38451;PMS5003;24231;52.514;13.438;2023-04-01T04:46:34;5;4;
38451;PMS5003;24231;52.514;13.438;2023-04-01T04:49:01;4;4;
38451;PMS5003;24231;52.514;13.438;2023-04-01T04:51:28;4;4;
38451;PMS5003;24231;52.514;13.438;2023-04-01T04:53:55;3;3;
38451;PMS5003;24231;52.514;13.438;2023-04-01T04:56:23;3;3;
38451;PMS5003;24231;52.514;13.438;2023-04-01T04:58:50;4;4;
38451;PMS5003;24231;52.514;13.438;2023-04-01T05:01:17;5;5;
38451;PMS5003;24231;52.514;13.438;2023-04-01T05:03:45;5;4;
38451;PMS5003;24231;52.514;13.438;2023-04-01T05:06:16;5;4;
38451;PMS5003;24231;52.514;13.438;2023-04-01T05:08:44;5;5;
38451;PMS5003;24231;52.514;13.438;2023-04-01T05:11:13;8;6;
38451;PMS5003;24231;52.514;13.438;2023-04-01T05:13:41;4;4;
38451;PMS5003;24231;52.514;13.438;2023-04-01T05:16:09;8;7;
38451;PMS5003;24231;52.514;13.438;2023-04-01T05:18:38;7;5;
38451;PMS5003;24231;52.514;13.438;2023-04-01T05:21:06;3;3;
38451;PMS5003;24231;52.514;13.438;2023-04-01T05:23:34;5;3;
38451;PMS5003;24231;52.514;13.438;2023-04-01T05:26:02;5;5;
38451;PMS5003;24231;52.514;13.438;2023-04-01T05:28:30;4;4;
38451;PMS5003;24231;52.514;13.438;2023-04-01T05:30:58;4;4;
38451;PMS5003;24231;52.514;13.438;2023-04-01T05:33:26;2;2;
38451;PMS5003;24231;52.514;13.438;2023-04-01T05:35:54;3;3;
38451;PMS5003;24231;52.514;13.438;2023-04-01T05:38:21;2;2;
38451;PMS5003;24231;52.514;13.438;2023-04-01T05:40:48;6;5;
38451;PMS5003;24231;52.514;13.438;2023-04-01T05:43:16;3;3;
38451;PMS5003;24231;52.514;13.438;2023-04-01T05:45:43;6;5;
38451;PMS5003;24231;52.514;13.438;2023-04-01T05:48:11;3;3;
38451;PMS5003;24231;52.514;13.438;2023-04-01T05:50:39;4;4;
38451;PMS5003;24231;52.514;13.438;2023-04-01T05:53:07;4;4;
38451;PMS5003;24231;52.514;13.438;2023-04-01T05:55:34;4;3;
38451;PMS5003;24231;52.514;13.438;2023-04-01T06:01:22;5;5;
38451;PMS5003;24231;52.514;13.438;2023-04-01T06:03:49;7;5;
38451;PMS5003;24231;52.514;13.438;2023-04-01T06:06:19;5;5;
38451;PMS5003;24231;52.514;13.438;2023-04-01T06:08:49;6;6;
38451;PMS5003;24231;52.514;13.438;2023-04-01T06:11:21;5;4;
38451;PMS5003;24231;52.514;13.438;2023-04-01T06:13:59;2;2;
38451;PMS5003;24231;52.514;13.438;2023-04-01T06:16:39;4;4;
38451;PMS5003;24231;52.514;13.438;2023-04-01T06:19:22;5;5;
38451;PMS5003;24231;52.514;13.438;2023-04-01T06:22:03;5;5;
38451;PMS5003;24231;52.514;13.438;2023-04-01T06:24:56;4;4;
38451;PMS5003;24231;52.514;13.438;2023-04-01T06:27:40;10;8;
38451;PMS5003;24231;52.514;13.438;2023-04-01T06:30:24;7;7;
38451;PMS5003;24231;52.514;13.438;2023-04-01T06:33:06;6;6;
38451;PMS5003;24231;52.514;13.438;2023-04-01T06:35:51;5;5;
38451;PMS5003;24231;52.514;13.438;2023-04-01T06:38:35;5;4;
38451;PMS5003;24231;52.514;13.438;2023-04-01T06:40:51;5;4;
38451;PMS5003;24231;52.514;13.438;2023-04-01T06:43:28;5;5;
38451;PMS5003;24231;52.514;13.438;2023-04-01T06:46:09;5;5;
38451;PMS5003;24231;52.514;13.438;2023-04-01T06:48:47;7;6;
38451;PMS5003;24231;52.514;13.438;2023-04-01T06:51:28;9;6;
38451;PMS5003;24231;52.514;13.438;2023-04-01T06:54:07;15;15;
38451;PMS5003;24231;52.514;13.438;2023-04-01T06:56:40;36;31;
38451;PMS5003;24231;52.514;13.438;2023-04-01T06:59:10;12;11;
38451;PMS5003;24231;52.514;13.438;2023-04-01T07:01:42;9;8;
38451;PMS5003;24231;52.514;13.438;2023-04-01T07:04:17;17;16;
38451;PMS5003;24231;52.514;13.438;2023-04-01T07:06:50;16;12;
38451;PMS5003;24231;52.514;13.438;2023-04-01T07:09:21;17;14;
38451;PMS5003;24231;52.514;13.438;2023-04-01T07:11:53;79;66;
38451;PMS5003;24231;52.514;13.438;2023-04-01T07:14:28;22;21;
38451;PMS5003;24231;52.514;13.438;2023-04-01T07:17:00;14;12;
38451;PMS5003;24231;52.514;13.438;2023-04-01T07:19:36;10;9;
38451;PMS5003;24231;52.514;13.438;2023-04-01T07:22:26;8;7;
38451;PMS5003;24231;52.514;13.438;2023-04-01T07:25:01;23;20;
38451;PMS5003;24231;52.514;13.438;2023-04-01T07:27:31;24;21;
38451;PMS5003;24231;52.514;13.438;2023-04-01T07:29:58;44;36;
38451;PMS5003;24231;52.514;13.438;2023-04-01T07:32:31;28;23;
38451;PMS5003;24231;52.514;13.438;2023-04-01T07:35:09;15;12;
38451;PMS5003;24231;52.514;13.438;2023-04-01T07:37:46;16;13;
38451;PMS5003;24231;52.514;13.438;2023-04-01T07:40:27;26;20;
38451;PMS5003;24231;52.514;13.438;2023-04-01T07:43:07;11;11;
38451;PMS5003;24231;52.514;13.438;2023-04-01T07:45:48;19;15;
38451;PMS5003;24231;52.514;13.438;2023-04-01T07:48:26;10;9;
38451;PMS5003;24231;52.514;13.438;2023-04-01T07:51:00;8;7;
38451;PMS5003;24231;52.514;13.438;2023-04-01T07:53:31;10;8;
38451;PMS5003;24231;52.514;13.438;2023-04-01T07:56:05;10;10;
38451;PMS5003;24231;52.514;13.438;2023-04-01T07:58:37;8;7;
38451;PMS5003;24231;52.514;13.438;2023-04-01T08:01:13;20;15;
38451;PMS5003;24231;52.514;13.438;2023-04-01T08:03:53;8;8;
38451;PMS5003;24231;52.514;13.438;2023-04-01T08:06:33;10;6;
38451;PMS5003;24231;52.514;13.438;2023-04-01T08:09:08;10;10;
38451;PMS5003;24231;52.514;13.438;2023-04-01T08:11:46;8;8;
38451;PMS5003;24231;52.514;13.438;2023-04-01T08:14:26;8;8;
38451;PMS5003;24231;52.514;13.438;2023-04-01T08:17:02;8;6;
38451;PMS5003;24231;52.514;13.438;2023-04-01T08:19:43;8;7;
38451;PMS5003;24231;52.514;13.438;2023-04-01T08:22:19;10;7;
38451;PMS5003;24231;52.514;13.438;2023-04-01T08:24:52;1;1;
38451;PMS5003;24231;52.514;13.438;2023-04-01T08:27:25;2;2;
38451;PMS5003;24231;52.514;13.438;2023-04-01T08:30:02;2;2;
38451;PMS5003;24231;52.514;13.438;2023-04-01T08:32:32;2;2;
38451;PMS5003;24231;52.514;13.438;2023-04-01T08:35:08;2;2;
38451;PMS5003;24231;52.514;13.438;2023-04-01T08:37:43;6;4;
38451;PMS5003;24231;52.514;13.438;2023-04-01T08:40:19;7;5;
38451;PMS5003;24231;52.514;13.438;2023-04-01T08:43:03;3;2;
38451;PMS5003;24231;52.514;13.438;2023-04-01T08:45:40;7;5;
38451;PMS5003;24231;52.514;13.438;2023-04-01T08:48:23;9;7;
38451;PMS5003;24231;52.514;13.438;2023-04-01T08:51:09;7;5;
38451;PMS5003;24231;52.514;13.438;2023-04-01T08:53:50;11;7;
38451;PMS5003;24231;52.514;13.438;2023-04-01T08:56:30;8;7;
38451;PMS5003;24231;52.514;13.438;2023-04-01T08:59:11;7;6;
38451;PMS5003;24231;52.514;13.438;2023-04-01T09:01:54;5;5;
38451;PMS5003;24231;52.514;13.438;2023-04-01T09:04:45;9;9;
38451;PMS5003;24231;52.514;13.438;2023-04-01T09:07:32;10;10;
38451;PMS5003;24231;52.514;13.438;2023-04-01T09:10:11;7;7;
38451;PMS5003;24231;52.514;13.438;2023-04-01T09:12:51;8;8;
38451;PMS5003;24231;52.514;13.438;2023-04-01T09:15:33;9;8;
38451;PMS5003;24231;52.514;13.438;2023-04-01T09:18:20;14;13;
38451;PMS5003;24231;52.514;13.438;2023-04-01T09:21:09;16;13;
38451;PMS5003;24231;52.514;13.438;2023-04-01T09:23:55;12;12;
38451;PMS5003;24231;52.514;13.438;2023-04-01T09:26:44;11;10;
38451;PMS5003;24231;52.514;13.438;2023-04-01T09:29:31;9;7;
38451;PMS5003;24231;52.514;13.438;2023-04-01T09:32:17;10;7;
38451;PMS5003;24231;52.514;13.438;2023-04-01T09:34:57;9;7;
38451;PMS5003;24231;52.514;13.438;2023-04-01T09:37:40;9;9;
38451;PMS5003;24231;52.514;13.438;2023-04-01T09:40:31;9;7;
38451;PMS5003;24231;52.514;13.438;2023-04-01T09:43:16;7;7;
38451;PMS5003;24231;52.514;13.438;2023-04-01T09:45:57;13;10;
38451;PMS5003;24231;52.514;13.438;2023-04-01T09:48:38;12;10;
38451;PMS5003;24231;52.514;13.438;2023-04-01T09:51:17;9;9;
38451;PMS5003;24231;52.514;13.438;2023-04-01T09:53:56;19;15;
38451;PMS5003;24231;52.514;13.438;2023-04-01T09:56:57;12;10;
38451;PMS5003;24231;52.514;13.438;2023-04-01T09:59:52;13;12;
38451;PMS5003;24231;52.514;13.438;2023-04-01T10:02:50;16;11;
38451;PMS5003;24231;52.514;13.438;2023-04-01T10:06:11;11;8;
38451;PMS5003;24231;52.514;13.438;2023-04-01T10:08:36;11;8;
38451;PMS5003;24231;52.514;13.438;2023-04-01T10:11:22;13;12;
38451;PMS5003;24231;52.514;13.438;2023-04-01T10:14:20;15;15;
38451;PMS5003;24231;52.514;13.438;2023-04-01T10:17:20;10;9;
38451;PMS5003;24231;52.514;13.438;2023-04-01T10:20:11;11;8;
38451;PMS5003;24231;52.514;13.438;2023-04-01T10:23:02;12;11;
38451;PMS5003;24231;52.514;13.438;2023-04-01T10:25:57;13;8;
38451;PMS5003;24231;52.514;13.438;2023-04-01T10:28:46;11;8;
38451;PMS5003;24231;52.514;13.438;2023-04-01T10:31:54;11;10;
38451;PMS5003;24231;52.514;13.438;2023-04-01T10:34:55;12;9;
38451;PMS5003;24231;52.514;13.438;2023-04-01T10:37:44;12;10;
38451;PMS5003;24231;52.514;13.438;2023-04-01T10:40:28;14;9;
38451;PMS5003;24231;52.514;13.438;2023-04-01T10:43:13;15;12;
38451;PMS5003;24231;52.514;13.438;2023-04-01T10:46:14;13;10;
38451;PMS5003;24231;52.514;13.438;2023-04-01T10:49:06;15;12;
38451;PMS5003;24231;52.514;13.438;2023-04-01T10:51:58;9;9;
38451;PMS5003;24231;52.514;13.438;2023-04-01T10:54:46;12;12;
38451;PMS5003;24231;52.514;13.438;2023-04-01T10:57:23;7;6;
38451;PMS5003;24231;52.514;13.438;2023-04-01T11:00:29;9;8;
38451;PMS5003;24231;52.514;13.438;2023-04-01T11:07:55;7;6;
38451;PMS5003;24231;52.514;13.438;2023-04-01T11:10:25;7;6;
38451;PMS5003;24231;52.514;13.438;2023-04-01T11:13:46;6;6;
38451;PMS5003;24231;52.514;13.438;2023-04-01T11:17:01;10;9;
38451;PMS5003;24231;52.514;13.438;2023-04-01T11:19:54;43;36;
38451;PMS5003;24231;52.514;13.438;2023-04-01T11:22:24;39;32;
38451;PMS5003;24231;52.514;13.438;2023-04-01T11:25:22;6;6;
38451;PMS5003;24231;52.514;13.438;2023-04-01T11:28:05;6;5;
38451;PMS5003;24231;52.514;13.438;2023-04-01T11:30:53;7;5;
38451;PMS5003;24231;52.514;13.438;2023-04-01T11:33:38;7;5;
38451;PMS5003;24231;52.514;13.438;2023-04-01T11:36:17;6;4;
38451;PMS5003;24231;52.514;13.438;2023-04-01T11:38:57;4;4;
38451;PMS5003;24231;52.514;13.438;2023-04-01T11:41:40;9;6;
38451;PMS5003;24231;52.514;13.438;2023-04-01T11:44:16;8;7;
38451;PMS5003;24231;52.514;13.438;2023-04-01T11:46:52;6;6;
38451;PMS5003;24231;52.514;13.438;2023-04-01T11:49:37;6;5;
38451;PMS5003;24231;52.514;13.438;2023-04-01T11:52:17;7;7;
38451;PMS5003;24231;52.514;13.438;2023-04-01T11:54:58;4;4;
38451;PMS5003;24231;52.514;13.438;2023-04-01T11:57:43;3;3;
38451;PMS5003;24231;52.514;13.438;2023-04-01T12:00:33;7;6;
38451;PMS5003;24231;52.514;13.438;2023-04-01T12:03:18;8;6;
38451;PMS5003;24231;52.514;13.438;2023-04-01T12:06:02;7;6;
38451;PMS5003;24231;52.514;13.438;2023-04-01T12:08:38;9;8;
38451;PMS5003;24231;52.514;13.438;2023-04-01T12:11:14;8;8;
38451;PMS5003;24231;52.514;13.438;2023-04-01T12:13:49;6;5;
38451;PMS5003;24231;52.514;13.438;2023-04-01T12:16:29;8;7;
38451;PMS5003;24231;52.514;13.438;2023-04-01T12:19:11;6;6;
38451;PMS5003;24231;52.514;13.438;2023-04-01T12:21:45;12;10;
38451;PMS5003;24231;52.514;13.438;2023-04-01T12:24:29;16;14;
38451;PMS5003;24231;52.514;13.438;2023-04-01T12:27:08;12;10;
38451;PMS5003;24231;52.514;13.438;2023-04-01T12:29:54;8;7;
38451;PMS5003;24231;52.514;13.438;2023-04-01T12:32:43;11;7;
38451;PMS5003;24231;52.514;13.438;2023-04-01T12:35:16;7;6;
38451;PMS5003;24231;52.514;13.438;2023-04-01T12:37:50;11;8;
38451;PMS5003;24231;52.514;13.438;2023-04-01T12:40:31;13;11;
38451;PMS5003;24231;52.514;13.438;2023-04-01T12:43:26;13;13;
38451;PMS5003;24231;52.514;13.438;2023-04-01T12:46:13;15;13;
38451;PMS5003;24231;52.514;13.438;2023-04-01T12:49:08;16;11;
38451;PMS5003;24231;52.514;13.438;2023-04-01T12:51:50;10;10;
38451;PMS5003;24231;52.514;13.438;2023-04-01T12:54:37;12;11;
38451;PMS5003;24231;52.514;13.438;2023-04-01T12:57:28;13;12;
38451;PMS5003;24231;52.514;13.438;2023-04-01T13:00:15;12;11;
38451;PMS5003;24231;52.514;13.438;2023-04-01T13:03:01;12;11;
38451;PMS5003;24231;52.514;13.438;2023-04-01T13:06:46;9;9;
38451;PMS5003;24231;52.514;13.438;2023-04-01T13:09:32;12;9;
38451;PMS5003;24231;52.514;13.438;2023-04-01T13:12:15;14;13;
38451;PMS5003;24231;52.514;13.438;2023-04-01T13:14:59;12;12;
38451;PMS5003;24231;52.514;13.438;2023-04-01T13:17:40;18;18;
38451;PMS5003;24231;52.514;13.438;2023-04-01T13:20:14;11;10;
38451;PMS5003;24231;52.514;13.438;2023-04-01T13:22:51;14;12;
38451;PMS5003;24231;52.514;13.438;2023-04-01T13:25:32;12;11;
38451;PMS5003;24231;52.514;13.438;2023-04-01T13:28:08;22;17;
38451;PMS5003;24231;52.514;13.438;2023-04-01T13:30:44;19;19;
38451;PMS5003;24231;52.514;13.438;2023-04-01T13:33:22;17;13;
38451;PMS5003;24231;52.514;13.438;2023-04-01T13:35:58;18;18;
38451;PMS5003;24231;52.514;13.438;2023-04-01T13:39:14;15;12;
38451;PMS5003;24231;52.514;13.438;2023-04-01T13:41:52;10;9;
38451;PMS5003;24231;52.514;13.438;2023-04-01T13:44:31;14;10;
38451;PMS5003;24231;52.514;13.438;2023-04-01T13:47:08;9;9;
38451;PMS5003;24231;52.514;13.438;2023-04-01T13:49:54;13;9;
38451;PMS5003;24231;52.514;13.438;2023-04-01T13:54:52;17;14;
38451;PMS5003;24231;52.514;13.438;2023-04-01T13:57:42;12;11;
38451;PMS5003;24231;52.514;13.438;2023-04-01T14:00:19;13;10;
38451;PMS5003;24231;52.514;13.438;2023-04-01T14:03:03;9;9;
38451;PMS5003;24231;52.514;13.438;2023-04-01T14:05:47;9;9;
38451;PMS5003;24231;52.514;13.438;2023-04-01T14:08:26;15;12;
38451;PMS5003;24231;52.514;13.438;2023-04-01T14:11:07;9;9;
38451;PMS5003;24231;52.514;13.438;2023-04-01T14:13:44;13;11;
38451;PMS5003;24231;52.514;13.438;2023-04-01T14:16:30;16;12;
38451;PMS5003;24231;52.514;13.438;2023-04-01T14:20:21;12;10;
38451;PMS5003;24231;52.514;13.438;2023-04-01T14:23:00;9;9;
38451;PMS5003;24231;52.514;13.438;2023-04-01T14:25:51;12;11;
38451;PMS5003;24231;52.514;13.438;2023-04-01T14:29:05;14;12;
38451;PMS5003;24231;52.514;13.438;2023-04-01T14:31:48;12;11;
38451;PMS5003;24231;52.514;13.438;2023-04-01T14:34:29;9;8;
38451;PMS5003;24231;52.514;13.438;2023-04-01T14:37:14;15;12;
38451;PMS5003;24231;52.514;13.438;2023-04-01T14:40:26;14;10;
38451;PMS5003;24231;52.514;13.438;2023-04-01T14:42:58;11;10;
38451;PMS5003;24231;52.514;13.438;2023-04-01T14:45:46;12;12;
38451;PMS5003;24231;52.514;13.438;2023-04-01T14:48:36;9;9;
38451;PMS5003;24231;52.514;13.438;2023-04-01T14:51:09;11;7;
38451;PMS5003;24231;52.514;13.438;2023-04-01T14:53:42;11;9;
38451;PMS5003;24231;52.514;13.438;2023-04-01T14:56:34;13;12;
38451;PMS5003;24231;52.514;13.438;2023-04-01T14:59:07;12;8;
38451;PMS5003;24231;52.514;13.438;2023-04-01T15:01:37;12;7;
38451;PMS5003;24231;52.514;13.438;2023-04-01T15:04:21;12;11;
38451;PMS5003;24231;52.514;13.438;2023-04-01T15:07:08;8;7;
38451;PMS5003;24231;52.514;13.438;2023-04-01T15:09:49;11;10;
38451;PMS5003;24231;52.514;13.438;2023-04-01T15:12:26;10;10;
38451;PMS5003;24231;52.514;13.438;2023-04-01T15:15:02;10;9;
38451;PMS5003;24231;52.514;13.438;2023-04-01T15:17:45;9;8;
38451;PMS5003;24231;52.514;13.438;2023-04-01T15:20:28;11;9;
38451;PMS5003;24231;52.514;13.438;2023-04-01T15:23:21;14;12;
38451;PMS5003;24231;52.514;13.438;2023-04-01T15:26:05;12;12;
38451;PMS5003;24231;52.514;13.438;2023-04-01T15:28:44;11;8;
38451;PMS5003;24231;52.514;13.438;2023-04-01T15:31:25;12;9;
38451;PMS5003;24231;52.514;13.438;2023-04-01T15:33:59;12;10;
38451;PMS5003;24231;52.514;13.438;2023-04-01T15:36:43;9;9;
38451;PMS5003;24231;52.514;13.438;2023-04-01T15:39:13;10;10;
38451;PMS5003;24231;52.514;13.438;2023-04-01T15:41:49;9;8;
38451;PMS5003;24231;52.514;13.438;2023-04-01T15:44:41;12;10;
38451;PMS5003;24231;52.514;13.438;2023-04-01T15:47:27;8;8;
38451;PMS5003;24231;52.514;13.438;2023-04-01T15:50:21;8;8;
38451;PMS5003;24231;52.514;13.438;2023-04-01T15:53:05;9;9;
38451;PMS5003;24231;52.514;13.438;2023-04-01T15:55:43;8;8;
38451;PMS5003;24231;52.514;13.438;2023-04-01T15:58:21;13;11;
38451;PMS5003;24231;52.514;13.438;2023-04-01T16:01:04;8;7;
38451;PMS5003;24231;52.514;13.438;2023-04-01T16:03:45;14;10;
38451;PMS5003;24231;52.514;13.438;2023-04-01T16:06:28;11;10;
38451;PMS5003;24231;52.514;13.438;2023-04-01T16:09:17;10;8;
38451;PMS5003;24231;52.514;13.438;2023-04-01T16:11:57;15;12;
38451;PMS5003;24231;52.514;13.438;2023-04-01T16:14:33;16;9;
38451;PMS5003;24231;52.514;13.438;2023-04-01T16:17:12;14;13;
38451;PMS5003;24231;52.514;13.438;2023-04-01T16:19:51;13;9;
38451;PMS5003;24231;52.514;13.438;2023-04-01T16:22:23;10;10;
38451;PMS5003;24231;52.514;13.438;2023-04-01T16:25:01;13;11;
38451;PMS5003;24231;52.514;13.438;2023-04-01T16:27:46;12;10;
38451;PMS5003;24231;52.514;13.438;2023-04-01T16:30:24;10;7;
38451;PMS5003;24231;52.514;13.438;2023-04-01T16:33:02;14;11;
38451;PMS5003;24231;52.514;13.438;2023-04-01T16:35:38;16;13;
38451;PMS5003;24231;52.514;13.438;2023-04-01T16:38:12;8;8;
38451;PMS5003;24231;52.514;13.438;2023-04-01T16:40:50;12;10;
38451;PMS5003;24231;52.514;13.438;2023-04-01T16:43:28;10;10;
38451;PMS5003;24231;52.514;13.438;2023-04-01T16:46:13;8;8;
38451;PMS5003;24231;52.514;13.438;2023-04-01T16:48:57;13;12;
38451;PMS5003;24231;52.514;13.438;2023-04-01T16:51:32;10;10;
38451;PMS5003;24231;52.514;13.438;2023-04-01T16:54:05;12;9;
38451;PMS5003;24231;52.514;13.438;2023-04-01T16:56:43;15;13;
38451;PMS5003;24231;52.514;13.438;2023-04-01T16:59:18;10;7;
38451;PMS5003;24231;52.514;13.438;2023-04-01T17:01:52;8;7;
38451;PMS5003;24231;52.514;13.438;2023-04-01T17:04:26;12;10;
38451;PMS5003;24231;52.514;13.438;2023-04-01T17:07:04;11;8;
38451;PMS5003;24231;52.514;13.438;2023-04-01T17:09:42;10;9;
38451;PMS5003;24231;52.514;13.438;2023-04-01T17:12:27;12;10;
38451;PMS5003;24231;52.514;13.438;2023-04-01T17:15:01;8;7;
38451;PMS5003;24231;52.514;13.438;2023-04-01T17:17:42;11;11;
38451;PMS5003;24231;52.514;13.438;2023-04-01T17:20:48;9;9;
38451;PMS5003;24231;52.514;13.438;2023-04-01T17:23:20;11;11;
38451;PMS5003;24231;52.514;13.438;2023-04-01T17:25:57;10;9;
38451;PMS5003;24231;52.514;13.438;2023-04-01T17:28:42;14;10;
38451;PMS5003;24231;52.514;13.438;2023-04-01T17:31:18;12;10;
38451;PMS5003;24231;52.514;13.438;2023-04-01T17:34:02;13;10;
38451;PMS5003;24231;52.514;13.438;2023-04-01T17:36:45;17;16;
38451;PMS5003;24231;52.514;13.438;2023-04-01T17:39:29;12;9;
38451;PMS5003;24231;52.514;13.438;2023-04-01T17:42:11;9;8;
38451;PMS5003;24231;52.514;13.438;2023-04-01T17:44:45;15;12;